createdAt,value
2023-02-22T00:00:25.027Z,101292.31
2023-02-22T00:01:28.644Z,101296.03
2023-02-22T00:02:32.788Z,101294.59
2023-02-22T00:03:36.541Z,101311.75
2023-02-22T00:04:40.639Z,101176.09
2023-02-22T00:05:45.425Z,101304.97
2023-02-22T00:06:49.745Z,101267.03
2023-02-22T00:07:53.432Z,101277.56
2023-02-22T00:08:57.558Z,101316.59
2023-02-22T00:10:01.227Z,101305.94
2023-02-22T00:11:06.978Z,101296.22
2023-02-22T00:12:10.555Z,101298.63
2023-02-22T00:13:16.250Z,101311.31
2023-02-22T00:14:19.977Z,101219.97
2023-02-22T00:15:25.458Z,101314.34
2023-02-22T00:16:29.084Z,101326.53
2023-02-22T00:17:32.712Z,101290.59
2023-02-22T00:18:36.506Z,101320.91
2023-02-22T00:19:40.083Z,101325.44
2023-02-22T00:20:43.720Z,101328.88
2023-02-22T00:21:52.195Z,101323.38
2023-02-22T00:22:55.973Z,101308.47
2023-02-22T00:24:02.055Z,101332.13
2023-02-22T00:25:06.130Z,101264.00
2023-02-22T00:26:11.391Z,101327.25
2023-02-22T00:27:15.092Z,101332.25
2023-02-22T00:28:20.569Z,101328.91
2023-02-22T00:29:24.834Z,101338.25
2023-02-22T00:30:30.347Z,101331.44
2023-02-22T00:31:38.767Z,101343.25
2023-02-22T00:32:43.744Z,101330.94
2023-02-22T00:33:47.734Z,101295.88
2023-02-22T00:34:54.140Z,101350.88
2023-02-22T00:36:01.508Z,101355.88
2023-02-22T00:37:05.224Z,101284.06
2023-02-22T00:38:09.232Z,101365.25
2023-02-22T00:39:13.021Z,101356.06
2023-02-22T00:40:18.558Z,101327.34
2023-02-22T00:41:22.253Z,101357.38
2023-02-22T00:42:25.860Z,101352.84
2023-02-22T00:43:31.163Z,101361.91
2023-02-22T00:44:34.738Z,101357.69
2023-02-22T00:45:38.905Z,101322.88
2023-02-22T00:46:42.500Z,101332.44
2023-02-22T00:47:46.354Z,101358.41
2023-02-22T00:48:50.011Z,101358.59
2023-02-22T00:49:53.753Z,101343.72
2023-02-22T00:50:57.460Z,101361.03
2023-02-22T00:52:01.058Z,101362.97
2023-02-22T00:53:06.158Z,101373.97
2023-02-22T00:54:09.925Z,101366.53
2023-02-22T00:55:18.476Z,101364.25
2023-02-22T00:56:22.370Z,101360.53
2023-02-22T00:57:26.681Z,101375.75
2023-02-22T00:58:32.108Z,101378.66
2023-02-22T00:59:35.782Z,101363.06
2023-02-22T01:00:41.552Z,101374.78
2023-02-22T01:01:45.634Z,101384.06
2023-02-22T01:02:50.039Z,101380.31
2023-02-22T01:03:53.723Z,101382.84
2023-02-22T01:04:57.734Z,101310.25
2023-02-22T01:06:01.412Z,101386.63
2023-02-22T01:07:05.119Z,101382.56
2023-02-22T01:08:10.850Z,101383.25
2023-02-22T01:09:14.427Z,101338.50
2023-02-22T01:10:21.127Z,101386.50
2023-02-22T01:11:24.882Z,101386.97
2023-02-22T01:12:28.682Z,101367.06
2023-02-22T01:13:33.970Z,101386.97
2023-02-22T01:14:37.526Z,101397.72
2023-02-22T01:15:43.137Z,101390.13
2023-02-22T01:16:46.797Z,101386.03
2023-02-22T01:17:51.692Z,101388.31
2023-02-22T01:18:55.305Z,101404.03
2023-02-22T01:19:59.067Z,101394.28
2023-02-22T01:21:02.798Z,101396.25
2023-02-22T01:22:06.458Z,101397.56
2023-02-22T01:23:10.266Z,101401.44
2023-02-22T01:24:13.967Z,101400.00
2023-02-22T01:25:19.663Z,101403.56
2023-02-22T01:26:23.270Z,101411.66
2023-02-22T01:27:26.855Z,101382.34
2023-02-22T01:28:30.657Z,101413.28
2023-02-22T01:29:35.936Z,101418.78
2023-02-22T01:30:39.663Z,101406.47
2023-02-22T01:31:43.569Z,101402.44
2023-02-22T01:32:47.370Z,101412.94
2023-02-22T01:33:51.062Z,101419.28
2023-02-22T01:34:55.214Z,101424.59
2023-02-22T01:35:59.189Z,101425.72
2023-02-22T01:37:02.938Z,101417.66
2023-02-22T01:38:06.525Z,101421.03
2023-02-22T01:39:10.177Z,101429.66
2023-02-22T01:40:19.057Z,101430.41
2023-02-22T01:41:22.938Z,101420.53
2023-02-22T01:42:26.621Z,101422.94
2023-02-22T01:43:31.678Z,101430.38
2023-02-22T01:44:38.882Z,101435.78
2023-02-22T01:46:00.439Z,101426.72
2023-02-22T01:47:05.295Z,101342.13
2023-02-22T01:48:13.513Z,101431.91
2023-02-22T01:49:17.616Z,101429.78
2023-02-22T01:50:21.289Z,101429.66
2023-02-22T01:51:29.186Z,101431.78
2023-02-22T01:52:33.002Z,101443.63
2023-02-22T01:53:43.939Z,101426.41
2023-02-22T01:54:52.143Z,101434.03
2023-02-22T01:55:57.262Z,101445.88
2023-02-22T01:57:05.351Z,101448.78
2023-02-22T01:58:10.098Z,101448.00
2023-02-22T01:59:14.864Z,101454.94
2023-02-22T02:00:21.589Z,101450.91
2023-02-22T02:01:27.098Z,101447.19
2023-02-22T02:02:30.881Z,101453.00
2023-02-22T02:03:39.121Z,101442.59
2023-02-22T02:04:43.507Z,101444.56
2023-02-22T02:05:47.583Z,101450.91
2023-02-22T02:06:52.417Z,101452.50
2023-02-22T02:07:56.299Z,101450.22
2023-02-22T02:09:12.286Z,101427.41
2023-02-22T11:31:58.054Z,100990.31
2023-02-22T11:33:17.267Z,101027.34
2023-02-22T11:34:30.655Z,101025.50
2023-02-22T11:35:39.491Z,101023.56
2023-02-22T11:36:44.273Z,101017.25
2023-02-22T11:37:47.878Z,101015.28
2023-02-22T11:38:56.432Z,101024.28
2023-02-22T11:40:09.324Z,101013.00
2023-02-22T11:41:18.259Z,101029.22
2023-02-22T11:42:26.918Z,101013.69
2023-02-22T11:43:30.608Z,101022.19
2023-02-22T11:44:36.733Z,101021.25
2023-02-22T11:45:53.033Z,101024.94
2023-02-22T11:47:06.274Z,101027.94
2023-02-22T11:48:19.783Z,101029.94
2023-02-22T11:49:26.134Z,101024.63
2023-02-22T11:50:34.048Z,101025.53
2023-02-22T11:51:50.165Z,100989.97
2023-02-22T11:53:14.692Z,101025.44
2023-02-22T11:54:40.318Z,101021.84
2023-02-22T11:55:53.632Z,101031.88
2023-02-22T11:57:08.105Z,101033.47
2023-02-22T11:58:27.642Z,101033.47
2023-02-22T11:59:39.077Z,101029.56
2023-02-22T12:00:53.663Z,101032.44
2023-02-22T12:01:58.992Z,101038.88
2023-02-22T12:03:23.629Z,101036.13
2023-02-22T12:05:02.716Z,101044.06
2023-02-22T12:06:18.822Z,101041.53
2023-02-22T12:07:38.882Z,101038.31
2023-02-22T12:08:55.133Z,101052.13
2023-02-22T12:10:08.774Z,101050.38
2023-02-22T12:11:19.626Z,101026.41
2023-02-22T12:12:30.185Z,101047.19
2023-02-22T12:13:48.798Z,101058.22
2023-02-22T12:15:03.822Z,101055.00
2023-02-22T12:16:20.382Z,101059.81
2023-02-22T12:17:33.812Z,101055.78
2023-02-22T12:18:45.053Z,101056.81
2023-02-22T12:19:51.722Z,101001.31
2023-02-22T12:20:59.391Z,101062.13
2023-02-22T12:22:09.050Z,101053.38
2023-02-22T12:23:19.808Z,101063.75
2023-02-22T12:24:27.628Z,101066.03
2023-02-22T12:25:36.154Z,101070.63
2023-02-22T12:26:42.682Z,101058.69
2023-02-22T12:27:49.680Z,101073.38
2023-02-22T12:28:57.180Z,101068.66
2023-02-22T12:30:05.756Z,101065.44
2023-02-22T12:31:20.624Z,101068.19
2023-02-22T12:32:33.503Z,101072.91
2023-02-22T12:33:58.116Z,101075.00
2023-02-22T12:35:09.964Z,101042.16
2023-02-22T12:36:18.472Z,101026.97
2023-02-22T12:37:28.277Z,101078.69
2023-02-22T12:38:38.838Z,101071.03
2023-02-22T12:39:54.062Z,101068.38
2023-02-22T12:41:05.840Z,101052.59
2023-02-22T12:42:17.754Z,101084.28
2023-02-22T12:43:27.918Z,101087.50
2023-02-22T12:44:36.166Z,101083.94
2023-02-22T12:45:47.596Z,101089.09
2023-02-22T12:46:53.200Z,101086.00
2023-02-22T12:48:06.079Z,101076.53
2023-02-22T12:49:17.341Z,101086.22
2023-02-22T12:50:23.772Z,101080.09
2023-02-22T12:51:33.183Z,101047.75
2023-02-22T12:52:45.302Z,101081.16
2023-02-22T12:53:56.519Z,101095.50
2023-02-22T12:55:05.471Z,101090.47
2023-02-22T12:56:21.633Z,101046.81
2023-02-22T12:57:35.718Z,101078.53
2023-02-22T12:58:45.942Z,101083.00
2023-02-22T12:59:53.760Z,101086.56
2023-02-22T13:01:05.891Z,101090.59
2023-02-22T13:02:16.850Z,101076.63
2023-02-22T13:03:35.735Z,101084.56
2023-02-22T13:04:41.007Z,101093.56
2023-02-22T13:05:50.310Z,101088.75
2023-02-22T13:07:28.089Z,101094.72
2023-02-22T13:08:38.584Z,101100.59
2023-02-22T13:10:34.607Z,101092.50
2023-02-22T13:11:44.395Z,101097.38
2023-02-22T13:12:57.963Z,101092.38
2023-02-22T13:14:17.656Z,101106.78
2023-02-22T13:15:29.121Z,101104.38
2023-02-22T13:16:42.267Z,101094.91
2023-02-22T13:17:54.425Z,101106.78
2023-02-22T13:19:04.729Z,101104.38
2023-02-22T13:20:18.486Z,101104.22
2023-02-22T13:21:30.770Z,101106.19
2023-02-22T13:22:41.187Z,101109.31
2023-02-22T13:23:54.809Z,101115.25
2023-02-22T13:25:10.163Z,101109.16
2023-02-22T13:26:19.652Z,101107.69
2023-02-22T13:27:28.187Z,101114.81
2023-02-22T13:28:36.710Z,101084.78
2023-02-22T13:29:46.522Z,101113.53
2023-02-22T13:31:02.703Z,101114.69
2023-02-22T13:32:30.376Z,101113.06
2023-02-22T13:33:53.012Z,101120.78
2023-02-22T13:35:16.153Z,101114.44
2023-02-22T13:36:36.659Z,101116.41
2023-02-22T13:38:11.034Z,101114.47
2023-02-22T13:40:03.441Z,101091.09
2023-02-22T13:41:52.107Z,101122.53
2023-02-22T13:43:09.106Z,101110.13
2023-02-22T13:44:44.465Z,101124.34
2023-02-22T13:46:29.857Z,101124.81
2023-02-22T13:48:15.336Z,101131.16
2023-02-22T13:49:42.038Z,101129.53
2023-02-22T13:51:04.245Z,101128.72
2023-02-22T13:52:13.060Z,101136.66
2023-02-22T13:53:22.436Z,101131.00
2023-02-22T13:54:39.559Z,101132.63
2023-02-22T13:55:53.572Z,101135.38
2023-02-22T13:56:58.565Z,101127.44
2023-02-22T13:58:04.765Z,101129.06
2023-02-22T13:59:08.543Z,101135.88
2023-02-22T14:00:39.998Z,101133.56
2023-02-22T14:01:46.335Z,101136.66
2023-02-22T14:03:02.633Z,101139.44
2023-02-22T14:04:33.515Z,101144.94
2023-02-22T14:05:47.770Z,101138.47
2023-02-22T14:06:53.508Z,101140.91
2023-02-22T14:07:57.412Z,101139.75
2023-02-22T14:09:02.299Z,101138.16
2023-02-22T14:10:06.367Z,101138.84
2023-02-22T14:11:51.090Z,101137.22
2023-02-22T14:12:56.454Z,101115.78
2023-02-22T14:14:17.050Z,101143.66
2023-02-22T14:15:29.592Z,101129.16
2023-02-22T14:16:37.448Z,101152.66
2023-02-22T14:17:41.998Z,101143.56
2023-02-22T14:18:47.709Z,101147.13
2023-02-22T14:20:22.779Z,101151.84
2023-02-22T14:21:26.572Z,101137.75
2023-02-22T14:22:32.284Z,101138.13
2023-02-22T14:23:37.838Z,101142.63
2023-02-22T14:24:46.407Z,101148.94
2023-02-22T14:25:50.825Z,101154.59
2023-02-22T14:27:01.557Z,101143.91
2023-02-22T14:28:07.307Z,101146.19
2023-02-22T14:29:18.597Z,101144.91
2023-02-22T14:30:29.423Z,101150.56
2023-02-22T14:31:37.295Z,101147.31
2023-02-22T14:32:43.746Z,101144.31
2023-02-22T14:34:00.581Z,101144.47
2023-02-22T14:35:26.607Z,101148.34
2023-02-22T14:36:45.785Z,101155.81
2023-02-22T14:37:55.977Z,101117.53
2023-02-22T14:39:10.323Z,101156.63
2023-02-22T14:40:22.700Z,101148.34
2023-02-22T14:41:47.338Z,101153.06
2023-02-22T14:42:59.626Z,101158.09
2023-02-22T14:44:12.336Z,101166.06
2023-02-22T14:45:23.908Z,101156.34
2023-02-22T14:46:30.355Z,101128.56
2023-02-22T14:47:45.404Z,101149.09
2023-02-22T14:48:53.610Z,101131.47
2023-02-22T14:50:04.589Z,101143.91
2023-02-22T14:51:21.817Z,101155.91
2023-02-22T14:52:29.758Z,101153.59
2023-02-22T14:53:41.184Z,101149.22
2023-02-22T14:54:58.974Z,101151.16
2023-02-22T14:56:06.172Z,101150.03
2023-02-22T14:57:20.068Z,101152.78
2023-02-22T14:58:30.273Z,101149.59
2023-02-22T14:59:36.026Z,101156.25
2023-02-22T15:00:42.119Z,101157.69
2023-02-22T15:01:53.240Z,101151.38
2023-02-22T15:03:05.727Z,101164.00
2023-02-22T15:04:19.854Z,101157.53
2023-02-22T15:05:23.675Z,101153.97
2023-02-22T15:06:29.072Z,101160.31
2023-02-22T15:07:33.790Z,101160.63
2023-02-22T15:08:39.120Z,101129.16
2023-02-22T15:09:42.691Z,101163.75
2023-02-22T15:10:47.575Z,101161.66
2023-02-22T15:11:52.463Z,101165.22
2023-02-22T15:13:01.781Z,101157.28
2023-02-22T15:14:25.721Z,101153.38
2023-02-22T15:15:32.473Z,101165.56
2023-02-22T15:16:38.325Z,101169.13
2023-02-22T15:17:42.502Z,101167.84
2023-02-22T15:18:48.699Z,101160.38
2023-02-22T15:19:54.049Z,101161.19
2023-02-22T15:21:00.130Z,101163.03
2023-02-22T15:22:04.379Z,101161.41
2023-02-22T15:23:11.614Z,101165.78
2023-02-22T15:24:25.375Z,101166.59
2023-02-22T15:25:31.574Z,101156.34
2023-02-22T15:26:37.516Z,101145.72
2023-02-22T15:28:06.092Z,101161.72
2023-02-22T15:29:13.895Z,101158.50
2023-02-22T15:30:23.368Z,101166.78
2023-02-22T15:31:31.009Z,101169.53
2023-02-22T15:32:36.759Z,101162.88
2023-02-22T15:33:40.667Z,101169.53
2023-02-22T15:34:44.244Z,101166.28
2023-02-22T15:35:55.746Z,101171.81
2023-02-22T15:37:13.474Z,101172.28
2023-02-22T15:38:22.666Z,101166.28
2023-02-22T15:39:29.750Z,101164.22
2023-02-22T15:40:33.994Z,101171.00
2023-02-22T15:41:37.595Z,101170.41
2023-02-22T15:42:45.888Z,101177.88
2023-02-22T15:44:08.001Z,101171.06
2023-02-22T15:45:19.341Z,101180.97
2023-02-22T15:46:22.997Z,101171.88
2023-02-22T15:47:28.915Z,101123.41
2023-02-22T15:48:32.512Z,101174.31
2023-02-22T15:49:36.112Z,101165.88
2023-02-22T15:50:39.791Z,101167.84
2023-02-22T15:51:44.641Z,101172.53
2023-02-22T15:52:55.113Z,101167.38
2023-02-22T15:54:03.569Z,101134.59
2023-02-22T15:55:12.019Z,101163.66
2023-02-22T15:56:18.760Z,101171.63
2023-02-22T15:57:24.129Z,101161.38
2023-02-22T15:58:29.186Z,101165.75
2023-02-22T15:59:32.821Z,101165.44
2023-02-22T16:00:38.327Z,101166.22
2023-02-22T16:01:44.242Z,101157.16
2023-02-22T16:02:48.876Z,101163.47
2023-02-22T16:03:55.040Z,101155.19
2023-02-22T16:05:04.352Z,101165.75
2023-02-22T16:06:12.269Z,101159.13
2023-02-22T16:07:18.056Z,101166.56
2023-02-22T16:08:25.281Z,101157.16
2023-02-22T16:09:29.007Z,101164.25
2023-02-22T16:10:34.427Z,101168.97
2023-02-22T16:11:39.572Z,101164.97
2023-02-22T16:12:43.259Z,101160.59
2023-02-22T16:13:53.571Z,101173.88
2023-02-22T16:14:58.665Z,101161.56
2023-02-22T16:16:03.796Z,101159.63
2023-02-22T16:17:25.170Z,101170.31
2023-02-22T16:18:31.013Z,101169.84
2023-02-22T16:19:40.726Z,101164.66
2023-02-22T16:20:46.055Z,101166.47
2023-02-22T16:21:53.820Z,101177.00
2023-02-22T16:22:58.861Z,101176.53
2023-02-22T16:24:15.111Z,101173.28
2023-02-22T16:25:34.208Z,101177.06
2023-02-22T16:26:37.790Z,101177.72
2023-02-22T16:27:43.805Z,101184.72
2023-02-22T16:28:51.958Z,101181.97
2023-02-22T16:30:23.260Z,101097.94
2023-02-22T16:31:29.766Z,101173.06
2023-02-22T16:32:33.561Z,101182.41
2023-02-22T16:33:39.974Z,101165.94
2023-02-22T16:34:44.738Z,101184.84
2023-02-22T16:35:48.352Z,101183.22
2023-02-22T16:36:52.310Z,101173.22
2023-02-22T16:38:01.426Z,101181.97
2023-02-22T16:39:07.297Z,101182.41
2023-02-22T16:40:13.850Z,101176.47
2023-02-22T16:41:19.639Z,101174.03
2023-02-22T16:42:23.448Z,101175.28
2023-02-22T16:43:29.038Z,101172.75
2023-02-22T16:44:34.633Z,101174.84
2023-02-22T16:45:39.252Z,101171.28
2023-02-22T16:46:44.075Z,101169.66
2023-02-22T16:47:47.728Z,101167.72
2023-02-22T16:48:51.321Z,101167.56
2023-02-22T16:49:54.976Z,101172.75
2023-02-22T16:51:00.586Z,101168.03
2023-02-22T16:52:08.314Z,101172.75
2023-02-22T16:53:12.081Z,101168.84
2023-02-22T16:54:20.775Z,101172.25
2023-02-22T16:55:24.353Z,101165.81
2023-02-22T16:56:31.323Z,101165.13
2023-02-22T16:57:35.146Z,101170.63
2023-02-22T16:58:41.797Z,101168.38
2023-02-22T16:59:45.686Z,101168.38
2023-02-22T17:00:49.537Z,101165.94
2023-02-22T17:01:53.178Z,101168.03
2023-02-22T17:02:56.836Z,101166.91
2023-02-22T17:04:00.379Z,101171.94
2023-02-22T17:05:04.044Z,101164.00
2023-02-22T17:06:08.313Z,101173.06
2023-02-22T17:07:12.096Z,101163.38
2023-02-22T17:08:15.798Z,101161.56
2023-02-22T17:09:19.560Z,101162.69
2023-02-22T17:10:23.281Z,101160.31
2023-02-22T17:11:31.566Z,101166.63
2023-02-22T17:12:35.271Z,101163.88
2023-02-22T17:13:43.319Z,101168.09
2023-02-22T17:14:47.786Z,101168.09
2023-02-22T17:15:51.967Z,101168.09
2023-02-22T17:16:55.828Z,101159.81
2023-02-22T17:18:00.408Z,101164.19
2023-02-22T17:19:04.181Z,101159.00
2023-02-22T17:20:08.644Z,101164.03
2023-02-22T17:21:13.067Z,101161.63
2023-02-22T17:22:20.885Z,101163.56
2023-02-22T17:23:25.157Z,101159.34
2023-02-22T17:24:28.890Z,101160.00
2023-02-22T17:25:37.371Z,101155.63
2023-02-22T17:26:42.830Z,101154.81
2023-02-22T17:27:46.703Z,101159.88
2023-02-22T17:28:50.413Z,101158.25
2023-02-22T17:29:54.285Z,101155.81
2023-02-22T17:30:59.573Z,101148.22
2023-02-22T17:32:04.898Z,101143.72
2023-02-22T17:33:10.067Z,101154.06
2023-02-22T17:34:13.725Z,101138.22
2023-02-22T17:35:19.037Z,101143.50
2023-02-22T17:36:22.704Z,101144.81
2023-02-22T17:37:26.427Z,101145.13
2023-02-22T17:38:30.580Z,101144.31
2023-02-22T17:39:34.327Z,101145.13
2023-02-22T17:40:39.903Z,101133.63
2023-02-22T17:41:45.533Z,101134.13
2023-02-22T17:42:49.336Z,101142.06
2023-02-22T17:43:53.151Z,101133.00
2023-02-22T17:44:56.734Z,101135.56
2023-02-22T17:46:00.611Z,101131.19
2023-02-22T17:47:04.478Z,101129.63
2023-02-22T17:48:09.100Z,101120.41
2023-02-22T17:49:12.794Z,101136.25
2023-02-22T17:50:16.522Z,101124.44
2023-02-22T17:51:20.620Z,101134.31
2023-02-22T17:52:24.462Z,101128.81
2023-02-22T17:53:28.061Z,101121.34
2023-02-22T17:54:31.720Z,101121.81
2023-02-22T17:55:36.960Z,101127.31
2023-02-22T17:56:40.751Z,101122.50
2023-02-22T17:57:46.278Z,101117.59
2023-02-22T17:58:51.929Z,101120.03
2023-02-22T17:59:55.685Z,101118.09
2023-02-22T18:00:59.447Z,101111.28
2023-02-22T18:02:03.331Z,101116.63
2023-02-22T18:03:08.887Z,101114.34
2023-02-22T18:04:12.666Z,101118.25
2023-02-22T18:05:40.937Z,101116.28
2023-02-22T18:06:44.952Z,101116.28
2023-02-22T18:07:48.614Z,101114.69
2023-02-22T18:08:54.125Z,101115.34
2023-02-22T18:09:59.548Z,101113.72
2023-02-22T18:11:27.085Z,101107.91
2023-02-22T18:12:30.788Z,101116.97
2023-02-22T18:13:36.117Z,101115.34
2023-02-22T18:14:54.162Z,101112.09
2023-02-22T18:15:59.416Z,101102.53
2023-02-22T18:17:03.057Z,101113.22
2023-02-22T18:18:09.827Z,101116.00
2023-02-22T18:19:17.162Z,101103.69
2023-02-22T18:20:20.958Z,101110.00
2023-02-22T18:21:25.309Z,101114.25
2023-02-22T18:22:28.988Z,101104.69
2023-02-22T18:23:41.094Z,101112.94
2023-02-22T18:24:44.754Z,101110.19
2023-02-22T18:26:03.890Z,101109.06
2023-02-22T18:27:13.126Z,101107.44
2023-02-22T18:28:17.439Z,101104.22
2023-02-22T18:29:22.699Z,101102.25
2023-02-22T18:30:50.901Z,101105.81
2023-02-22T18:31:54.600Z,101099.84
2023-02-22T18:32:58.289Z,101103.88
2023-02-22T18:34:01.891Z,101099.84
2023-02-22T18:35:06.443Z,101094.53
2023-02-22T18:36:10.631Z,101071.91
2023-02-22T18:37:14.249Z,101100.66
2023-02-22T18:38:17.887Z,101098.22
2023-02-22T18:39:21.630Z,101089.97
2023-02-22T18:40:25.192Z,101092.72
2023-02-22T18:41:28.850Z,101089.47
2023-02-22T18:42:32.389Z,101075.91
2023-02-22T18:43:35.986Z,101061.72
2023-02-22T18:44:41.420Z,101091.41
2023-02-22T18:45:45.110Z,101058.00
2023-02-22T18:46:48.902Z,101052.03
2023-02-22T18:47:52.696Z,101079.00
2023-02-22T18:48:57.295Z,101081.91
2023-02-22T18:50:00.876Z,101075.59
2023-02-22T18:51:05.986Z,101078.34
2023-02-22T18:52:09.564Z,101070.88
2023-02-22T18:53:13.216Z,101041.84
2023-02-22T18:54:16.871Z,101075.59
2023-02-22T18:55:21.397Z,101051.34
2023-02-22T18:56:25.040Z,101073.50
2023-02-22T18:57:28.724Z,101065.88
2023-02-22T18:58:32.504Z,101069.94
2023-02-22T18:59:36.075Z,101063.13
2023-02-22T19:00:41.341Z,101069.94
2023-02-22T19:01:44.986Z,101074.28
2023-02-22T19:02:48.590Z,101061.19
2023-02-22T19:03:52.666Z,101068.63
2023-02-22T19:04:56.418Z,101067.81
2023-02-22T19:06:02.662Z,101035.22
2023-02-22T19:07:06.275Z,101061.06
2023-02-22T19:08:09.885Z,101061.38
2023-02-22T19:09:13.474Z,101061.72
2023-02-22T19:10:17.322Z,101064.47
2023-02-22T19:11:22.829Z,101045.75
2023-02-22T19:12:26.438Z,101056.84
2023-02-22T19:13:30.023Z,101059.28
2023-02-22T19:14:33.553Z,101055.41
2023-02-22T19:15:37.400Z,101058.97
2023-02-22T19:16:42.627Z,101057.34
2023-02-22T19:17:46.417Z,101047.47
2023-02-22T19:18:51.103Z,101046.81
2023-02-22T19:19:54.810Z,101041.31
2023-02-22T19:20:58.602Z,101053.44
2023-02-22T19:22:02.218Z,101030.34
2023-02-22T19:23:05.813Z,101044.88
2023-02-22T19:24:09.587Z,101048.44
2023-02-22T19:25:13.251Z,101046.47
2023-02-22T19:26:18.832Z,101048.09
2023-02-22T19:27:22.945Z,101049.25
2023-02-22T19:28:26.536Z,101047.63
2023-02-22T19:29:30.237Z,101052.66
2023-02-22T19:30:33.884Z,101045.53
2023-02-22T19:31:39.442Z,101047.47
2023-02-22T19:32:45.551Z,101045.03
2023-02-22T19:33:50.089Z,101045.84
2023-02-22T19:34:53.816Z,101042.28
2023-02-22T19:36:01.417Z,101045.25
2023-02-22T19:37:05.462Z,101048.47
2023-02-22T19:38:09.096Z,101052.38
2023-02-22T19:39:12.937Z,101048.00
2023-02-22T19:40:16.606Z,101047.50
2023-02-22T19:41:21.985Z,101050.25
2023-02-22T19:42:25.732Z,101043.94
2023-02-22T19:43:29.377Z,101050.59
2023-02-22T19:44:33.239Z,101012.44
2023-02-22T19:45:40.419Z,101047.03
2023-02-22T19:46:44.273Z,101047.84
2023-02-22T19:47:53.701Z,101040.72
2023-02-22T19:48:57.523Z,101042.31
2023-02-22T19:50:01.104Z,101042.66
2023-02-22T19:51:07.333Z,101043.63
2023-02-22T19:52:10.935Z,101047.84
2023-02-22T19:53:14.540Z,101037.31
2023-02-22T19:54:18.880Z,101039.59
2023-02-22T19:55:22.522Z,101045.09
2023-02-22T19:56:26.874Z,101032.47
2023-02-22T19:57:30.656Z,101045.91
2023-02-22T19:58:34.288Z,101043.16
2023-02-22T19:59:38.024Z,101041.22
2023-02-22T20:02:16.007Z,101045.09
2023-02-22T20:03:21.393Z,101043.00
2023-02-22T20:04:25.310Z,101036.69
2023-02-22T20:05:28.981Z,101041.84
2023-02-22T20:06:34.371Z,101044.59
2023-02-22T20:07:38.584Z,101037.16
2023-02-22T20:08:42.407Z,101041.41
2023-02-22T20:09:46.070Z,101040.25
2023-02-22T20:10:49.690Z,101038.66
2023-02-22T20:11:53.314Z,101037.69
2023-02-22T20:12:57.062Z,101039.44
2023-02-22T20:14:01.134Z,101030.03
2023-02-22T20:15:04.993Z,101032.78
2023-02-22T20:16:09.114Z,101038.66
2023-02-22T20:17:12.736Z,101030.41
2023-02-22T20:18:16.389Z,101026.84
2023-02-22T20:19:21.807Z,101037.03
2023-02-22T20:20:25.399Z,101029.59
2023-02-22T20:21:31.308Z,101024.09
2023-02-22T20:22:35.044Z,101032.34
2023-02-22T20:23:39.159Z,101029.59
2023-02-22T20:24:42.947Z,101030.72
2023-02-22T20:25:53.515Z,101033.31
2023-02-22T20:26:57.824Z,101036.38
2023-02-22T20:28:01.472Z,101034.44
2023-02-22T20:29:06.332Z,101031.69
2023-02-22T20:30:11.142Z,101038.00
2023-02-22T20:31:16.421Z,101038.00
2023-02-22T20:32:20.521Z,101037.53
2023-02-22T20:33:24.384Z,101039.94
2023-02-22T20:34:30.509Z,101035.25
2023-02-22T20:35:34.727Z,101033.63
2023-02-22T20:36:40.048Z,100972.59
2023-02-22T20:37:43.855Z,101017.53
2023-02-22T20:38:47.445Z,101033.84
2023-02-22T20:39:52.124Z,101044.16
2023-02-22T20:40:55.714Z,101029.47
2023-02-22T20:41:59.423Z,101041.75
2023-02-22T20:43:03.025Z,101039.66
2023-02-22T20:44:06.642Z,101035.47
2023-02-22T20:45:12.019Z,101038.19
2023-02-22T20:46:15.765Z,101039.34
2023-02-22T20:47:19.367Z,101039.00
2023-02-22T20:48:22.952Z,101040.16
2023-02-22T20:49:28.168Z,101027.56
2023-02-22T20:50:32.204Z,101039.34
2023-02-22T20:51:36.525Z,101035.78
2023-02-22T20:52:40.154Z,101044.03
2023-02-22T20:53:44.136Z,101043.22
2023-02-22T20:54:47.732Z,101043.22
2023-02-22T20:55:52.208Z,101041.59
2023-02-22T20:56:55.831Z,101045.50
2023-02-22T20:57:59.493Z,101043.88
2023-02-22T20:59:04.599Z,101044.69
2023-02-22T21:00:08.887Z,101046.28
2023-02-22T21:01:14.239Z,101044.69
2023-02-22T21:02:17.875Z,101031.94
2023-02-22T21:03:22.621Z,101040.97
2023-02-22T21:04:26.279Z,101043.72
2023-02-22T21:05:33.399Z,101038.22
2023-02-22T21:06:38.563Z,101037.44
2023-02-22T21:07:42.314Z,101039.38
2023-02-22T21:08:49.636Z,100990.41
2023-02-22T21:09:53.241Z,101034.84
2023-02-22T21:10:56.860Z,101038.72
2023-02-22T21:12:00.584Z,101036.78
2023-02-22T21:13:08.021Z,101032.41
2023-02-22T21:14:17.549Z,101034.03
2023-02-22T21:15:21.126Z,101038.06
2023-02-22T21:16:26.852Z,101040.03
2023-02-22T21:17:30.487Z,101031.75
2023-02-22T21:18:34.215Z,101034.03
2023-02-22T21:19:37.778Z,101037.25
2023-02-22T21:20:43.233Z,101020.31
2023-02-22T21:21:46.874Z,101032.91
2023-02-22T21:22:50.508Z,101032.09
2023-02-22T21:23:55.838Z,101026.91
2023-02-22T21:24:59.434Z,101029.53
2023-02-22T21:26:03.147Z,101034.69
2023-02-22T21:27:06.844Z,101030.34
2023-02-22T21:28:10.557Z,101032.28
2023-02-22T21:29:14.238Z,101032.75
2023-02-22T21:30:18.322Z,101024.47
2023-02-22T21:31:23.838Z,101038.25
2023-02-22T21:32:27.844Z,101020.47
2023-02-22T21:33:31.470Z,101027.09
2023-02-22T21:34:35.252Z,101026.63
2023-02-22T21:35:38.919Z,101026.28
2023-02-22T21:36:44.759Z,101033.41
2023-02-22T21:37:48.363Z,101025.16
2023-02-22T21:38:55.165Z,101034.22
2023-02-22T21:39:58.842Z,101032.75
2023-02-22T21:41:02.441Z,101015.94
2023-02-22T21:42:06.236Z,101031.94
2023-02-22T21:43:09.818Z,101033.09
2023-02-22T21:44:14.308Z,101031.47
2023-02-22T21:45:18.633Z,101029.84
2023-02-22T21:46:23.023Z,101039.25
2023-02-22T21:47:26.896Z,101032.44
2023-02-22T21:48:30.560Z,101043.44
2023-02-22T21:49:34.138Z,101035.19
2023-02-22T21:50:37.785Z,101037.13
2023-02-22T21:51:43.416Z,101039.06
2023-02-22T21:52:47.994Z,101041.00
2023-02-22T21:53:54.010Z,101041.00
2023-02-22T21:54:57.594Z,101024.22
2023-02-22T21:56:05.169Z,101051.53
2023-02-22T21:57:08.874Z,101047.19
2023-02-22T21:58:12.557Z,101048.63
2023-02-22T21:59:18.133Z,101054.13
2023-02-22T22:00:22.006Z,101054.94
2023-02-22T22:01:25.844Z,101041.66
2023-02-22T22:02:29.773Z,101055.56
2023-02-22T22:03:33.852Z,101056.56
2023-02-22T22:04:37.509Z,101062.50
2023-02-22T22:05:41.285Z,101060.91
2023-02-22T22:06:55.856Z,101065.59
2023-02-22T22:07:59.532Z,101070.75
2023-02-22T22:09:03.442Z,101064.47
2023-02-22T22:10:07.491Z,101064.13
2023-02-22T22:11:12.844Z,101068.81
2023-02-22T22:12:16.450Z,101069.97
2023-02-22T22:13:20.152Z,101076.59